Time;durP1;ratioP1;P1;durP2;ratioP2;P2;SDS_P1;SDS_P2;PMS_P1;PMS_P2;Temp;Humidity;BMP_temperature;BMP_pressure;BME280_temperature;BME280_humidity;BME280_pressure;Samples;Min_cycle;Max_cycle;Signal;HPM_P1;HPM_P2
2022/09/30 00:01:08;;;;;;;7.13;6.53;;;10.10;99.90;;;;;;5073152;28;20235;-51
2022/09/30 00:03:36;;;;;;;7.27;6.57;;;10.00;99.90;;;;;;5069165;28;20230;-52
2022/09/30 00:06:07;;;;;;;7.53;6.67;;;10.00;99.90;;;;;;5073897;28;20228;-51
2022/09/30 00:08:36;;;;;;;7.33;6.73;;;10.00;99.90;;;;;;5073798;28;20268;-52
2022/09/30 00:11:07;;;;;;;7.50;6.80;;;10.00;99.90;;;;;;5074966;28;20234;-50
2022/09/30 00:13:37;;;;;;;7.60;7.00;;;10.00;99.90;;;;;;5063765;28;20709;-52
2022/09/30 00:16:09;;;;;;;7.50;6.80;;;10.00;99.90;;;;;;5074333;28;20235;-52
2022/09/30 00:18:38;;;;;;;8.07;6.80;;;9.90;99.90;;;;;;5073320;28;20222;-52
2022/09/30 00:21:07;;;;;;;8.33;7.47;;;9.90;99.90;;;;;;5072761;28;20227;-52
2022/09/30 00:23:36;;;;;;;8.30;7.30;;;9.90;99.90;;;;;;5063669;28;20608;-52
2022/09/30 00:26:07;;;;;;;8.10;7.33;;;9.80;99.90;;;;;;5073108;28;20239;-52
2022/09/30 00:28:35;;;;;;;7.87;7.17;;;9.80;99.90;;;;;;5073534;28;20232;-52
2022/09/30 00:31:06;;;;;;;8.07;7.37;;;9.70;99.90;;;;;;5072640;28;20240;-54
2022/09/30 00:33:36;;;;;;;7.70;7.00;;;9.70;99.90;;;;;;5061866;28;20270;-54
2022/09/30 00:36:04;;;;;;;7.13;6.53;;;9.70;99.90;;;;;;5072897;28;20653;-54
2022/09/30 00:38:33;;;;;;;7.00;6.40;;;9.70;99.90;;;;;;5073235;28;20225;-54
2022/09/30 00:41:02;;;;;;;7.53;6.90;;;9.70;99.90;;;;;;5078393;28;20239;-54
2022/09/30 00:43:42;;;;;;;6.90;6.30;;;9.60;99.90;;;;;;5062709;28;20588;-53
2022/09/30 00:46:19;;;;;;;7.40;6.70;;;9.60;99.90;;;;;;5073576;28;20222;-54
2022/09/30 00:48:52;;;;;;;7.17;6.57;;;9.60;99.90;;;;;;5072467;28;20227;-53
2022/09/30 00:51:28;;;;;;;7.80;7.03;;;9.60;99.90;;;;;;5072416;28;20221;-53
2022/09/30 00:53:59;;;;;;;7.57;6.87;;;9.60;99.90;;;;;;5062747;28;20217;-53
2022/09/30 00:56:31;;;;;;;7.60;6.97;;;9.50;99.90;;;;;;5072521;28;20231;-54
2022/09/30 00:59:06;;;;;;;8.07;7.37;;;9.50;99.90;;;;;;5073130;28;20235;-53
2022/09/30 01:01:35;;;;;;;8.23;6.23;;;9.50;99.90;;;;;;5072013;28;20227;-54
2022/09/30 01:04:10;;;;;;;8.43;7.73;;;9.50;99.90;;;;;;5068835;28;20274;-54
2022/09/30 01:06:38;;;;;;;7.97;7.27;;;9.50;99.90;;;;;;5072807;28;20669;-54
2022/09/30 01:09:06;;;;;;;7.67;6.97;;;9.50;99.90;;;;;;5073280;28;20682;-54
2022/09/30 01:11:34;;;;;;;7.50;6.90;;;9.40;99.90;;;;;;5076993;28;20261;-51
2022/09/30 01:14:06;;;;;;;7.87;7.20;;;9.30;99.90;;;;;;5062842;28;20247;-53
2022/09/30 01:16:46;;;;;;;8.37;7.63;;;9.30;99.90;;;;;;5073287;28;20260;-54
2022/09/30 01:19:48;;;;;;;8.23;7.40;;;9.30;99.90;;;;;;5071918;28;20233;-53
2022/09/30 01:22:26;;;;;;;7.50;6.70;;;9.30;99.90;;;;;;5068132;28;20215;-51
2022/09/30 01:25:25;;;;;;;8.00;7.20;;;9.20;99.90;;;;;;5072532;28;20284;-51
2022/09/30 01:28:21;;;;;;;7.80;7.10;;;9.20;99.90;;;;;;5072230;28;20277;-52
2022/09/30 01:31:13;;;;;;;7.73;7.03;;;9.20;99.90;;;;;;5059243;28;20227;-51
2022/09/30 01:33:47;;;;;;;8.40;7.30;;;9.10;99.90;;;;;;5063377;28;20607;-51
2022/09/30 01:36:34;;;;;;;8.23;7.43;;;9.10;99.90;;;;;;5064881;28;20234;-51
2022/09/30 01:39:13;;;;;;;7.90;7.17;;;9.10;99.90;;;;;;5072297;28;20250;-51
2022/09/30 01:41:51;;;;;;;8.37;7.67;;;9.10;99.90;;;;;;5075632;28;20696;-54
2022/09/30 01:44:29;;;;;;;8.57;7.77;;;9.10;99.90;;;;;;5071480;28;20699;-53
2022/09/30 01:47:01;;;;;;;9.40;8.13;;;9.10;99.90;;;;;;5076861;28;20232;-50
2022/09/30 01:49:34;;;;;;;9.00;8.10;;;9.10;99.90;;;;;;5073796;28;20228;-52
2022/09/30 01:52:09;;;;;;;9.23;8.33;;;9.20;99.90;;;;;;5073579;28;20236;-50
2022/09/30 01:54:42;;;;;;;8.57;7.63;;;9.20;99.90;;;;;;5071798;28;20223;-54
2022/09/30 01:57:15;;;;;;;9.37;8.57;;;9.30;99.90;;;;;;5056378;28;20719;-54
2022/09/30 01:59:47;;;;;;;9.20;8.20;;;9.20;99.90;;;;;;5056359;28;20282;-54
2022/09/30 02:02:20;;;;;;;9.17;8.27;;;9.30;99.90;;;;;;5061422;28;21244;-54
2022/09/30 02:04:54;;;;;;;9.60;8.70;;;9.30;99.90;;;;;;5072799;28;20220;-54
2022/09/30 02:07:26;;;;;;;8.47;7.77;;;9.30;99.90;;;;;;5076255;28;20228;-53
2022/09/30 02:09:59;;;;;;;9.60;8.70;;;9.30;99.90;;;;;;5081770;28;20705;-53
2022/09/30 02:12:33;;;;;;;10.27;9.27;;;9.30;99.90;;;;;;5067719;28;20715;-53
2022/09/30 02:15:06;;;;;;;9.37;8.57;;;9.20;99.90;;;;;;5074917;28;20297;-54
2022/09/30 02:17:42;;;;;;;9.30;8.40;;;9.20;99.90;;;;;;5076427;28;20258;-54
2022/09/30 02:20:13;;;;;;;9.13;8.33;;;9.20;99.90;;;;;;5055779;28;20238;-54
2022/09/30 02:22:45;;;;;;;9.40;8.53;;;9.20;99.90;;;;;;5063691;28;20698;-54
2022/09/30 02:25:19;;;;;;;9.60;8.80;;;9.10;99.90;;;;;;5067822;28;20230;-54
2022/09/30 02:27:51;;;;;;;9.83;8.93;;;9.20;99.90;;;;;;5075421;28;20222;-53
2022/09/30 02:30:19;;;;;;;9.57;8.73;;;9.20;99.90;;;;;;5075262;28;20216;-54
2022/09/30 02:32:52;;;;;;;9.73;8.83;;;9.20;99.90;;;;;;5065702;28;20239;-54
2022/09/30 02:35:24;;;;;;;9.83;8.90;;;9.20;99.90;;;;;;5075563;28;20235;-54
2022/09/30 02:37:55;;;;;;;9.97;9.07;;;9.30;99.90;;;;;;5075467;28;20223;-53
2022/09/30 02:40:29;;;;;;;10.87;9.87;;;9.30;99.90;;;;;;5075099;28;20631;-54
2022/09/30 02:42:58;;;;;;;10.97;9.97;;;9.30;99.90;;;;;;5071141;28;20230;-54
2022/09/30 02:45:27;;;;;;;10.93;9.60;;;9.30;99.90;;;;;;5074997;28;20236;-53
2022/09/30 02:48:09;;;;;;;11.63;10.53;;;9.30;99.90;;;;;;5075465;28;20227;-53
2022/09/30 02:50:44;;;;;;;11.60;10.47;;;9.30;99.90;;;;;;5074998;28;20232;-53
2022/09/30 02:53:25;;;;;;;11.67;10.57;;;9.40;99.90;;;;;;5066051;28;20615;-54
2022/09/30 02:56:11;;;;;;;11.97;10.87;;;9.40;99.90;;;;;;5075106;28;20243;-54
2022/09/30 02:58:42;;;;;;;12.30;11.10;;;9.40;99.90;;;;;;5074381;28;20215;-54
2022/09/30 03:01:12;;;;;;;12.43;11.13;;;9.40;99.90;;;;;;5074984;28;20231;-53
2022/09/30 03:03:45;;;;;;;12.07;11.07;;;9.50;99.90;;;;;;5075373;28;20239;-54
2022/09/30 03:06:14;;;;;;;13.27;12.07;;;9.50;99.90;;;;;;5067424;28;20228;-53
2022/09/30 03:08:42;;;;;;;14.43;13.00;;;9.50;99.90;;;;;;5074728;28;20690;-53
2022/09/30 03:11:16;;;;;;;13.40;12.20;;;9.50;99.90;;;;;;5072144;28;20556;-54
2022/09/30 03:14:14;;;;;;;13.33;12.13;;;9.50;99.90;;;;;;5069826;28;20243;-52
2022/09/30 03:17:00;;;;;;;12.73;11.63;;;9.50;99.90;;;;;;5075452;28;20756;-54
2022/09/30 03:19:42;;;;;;;13.97;12.53;;;9.50;99.90;;;;;;5074381;28;20231;-54
2022/09/30 03:22:25;;;;;;;13.03;11.83;;;9.50;99.90;;;;;;5071031;28;20729;-54
2022/09/30 03:25:14;;;;;;;14.07;12.67;;;9.50;99.90;;;;;;5074286;28;20221;-53
2022/09/30 03:27:50;;;;;;;14.30;12.90;;;9.50;99.90;;;;;;5074668;28;20231;-53
2022/09/30 03:30:21;;;;;;;15.67;14.07;;;9.50;99.90;;;;;;5074357;28;20246;-53
2022/09/30 03:33:04;;;;;;;15.37;13.77;;;9.50;99.90;;;;;;5064795;28;20238;-54
2022/09/30 03:35:45;;;;;;;14.33;12.90;;;9.50;99.90;;;;;;5073636;28;20222;-53
2022/09/30 03:38:22;;;;;;;15.47;13.87;;;9.50;99.90;;;;;;5054329;28;20223;-53
2022/09/30 03:40:59;;;;;;;14.97;13.63;;;9.50;99.90;;;;;;5071517;28;20230;-53
2022/09/30 03:43:33;;;;;;;14.80;13.33;;;9.50;99.90;;;;;;5063748;28;20219;-54
2022/09/30 03:46:06;;;;;;;16.80;15.20;;;9.50;99.90;;;;;;5071089;28;20222;-54
2022/09/30 03:48:36;;;;;;;18.33;15.13;;;9.50;99.90;;;;;;5068648;28;20721;-54
2022/09/30 03:51:08;;;;;;;17.10;15.40;;;9.50;99.90;;;;;;5072880;28;20231;-53
2022/09/30 03:53:41;;;;;;;15.70;14.20;;;9.50;99.90;;;;;;5060975;28;20266;-54
2022/09/30 03:56:09;;;;;;;17.00;15.33;;;9.50;99.90;;;;;;5064776;28;20691;-54
2022/09/30 03:58:40;;;;;;;16.93;15.33;;;9.50;99.90;;;;;;5064579;28;20228;-54
2022/09/30 04:01:17;;;;;;;17.17;15.47;;;9.50;99.90;;;;;;5063025;28;20583;-53
2022/09/30 04:03:46;;;;;;;17.60;15.90;;;9.50;99.90;;;;;;5062462;28;20275;-54
2022/09/30 04:06:16;;;;;;;16.83;15.30;;;9.50;99.90;;;;;;5065480;28;20625;-54
2022/09/30 04:08:44;;;;;;;17.13;15.43;;;9.50;99.90;;;;;;5064247;28;20216;-54
2022/09/30 04:11:12;;;;;;;16.27;14.67;;;9.40;99.90;;;;;;5068149;28;20220;-53
2022/09/30 04:13:40;;;;;;;16.97;15.27;;;9.50;99.90;;;;;;5061265;28;20221;-54
2022/09/30 04:16:09;;;;;;;17.30;15.67;;;9.50;99.90;;;;;;5067464;28;20609;-53
2022/09/30 04:18:38;;;;;;;15.80;14.33;;;9.50;99.90;;;;;;5066173;28;20713;-54
2022/09/30 04:21:07;;;;;;;16.37;14.80;;;9.50;99.90;;;;;;5064139;28;20231;-54
2022/09/30 04:23:36;;;;;;;16.87;15.20;;;9.50;99.90;;;;;;5063422;28;20225;-53
2022/09/30 04:26:06;;;;;;;16.80;15.17;;;9.50;99.90;;;;;;5068861;28;20266;-54
2022/09/30 04:28:35;;;;;;;16.77;14.83;;;9.50;99.90;;;;;;5073440;28;20228;-54
2022/09/30 04:31:05;;;;;;;15.83;14.43;;;9.50;99.90;;;;;;5072930;28;20254;-53
2022/09/30 04:33:34;;;;;;;15.73;14.13;;;9.40;99.90;;;;;;5068675;28;20682;-54
2022/09/30 04:36:02;;;;;;;17.93;16.13;;;9.50;99.90;;;;;;5072894;28;20235;-54
2022/09/30 04:38:31;;;;;;;18.03;16.30;;;9.40;99.90;;;;;;5054746;28;20237;-54
2022/09/30 04:41:04;;;;;;;16.47;14.77;;;9.40;99.90;;;;;;5077165;28;20235;-54
2022/09/30 04:43:33;;;;;;;16.23;14.67;;;9.40;99.90;;;;;;5064129;28;20582;-54
2022/09/30 04:46:01;;;;;;;16.83;15.17;;;9.50;99.90;;;;;;5073472;28;20226;-54
2022/09/30 04:48:31;;;;;;;16.63;15.03;;;9.40;99.90;;;;;;5072552;28;20317;-54
2022/09/30 04:50:59;;;;;;;17.40;15.73;;;9.40;99.90;;;;;;5073225;28;20230;-54
2022/09/30 04:53:28;;;;;;;17.10;15.40;;;9.50;99.90;;;;;;5066879;28;20219;-54
2022/09/30 04:56:01;;;;;;;17.20;15.60;;;9.40;99.90;;;;;;5072932;28;20586;-54
2022/09/30 04:58:31;;;;;;;16.97;15.33;;;9.40;99.90;;;;;;5071895;28;20236;-54
2022/09/30 05:01:05;;;;;;;18.13;16.30;;;9.40;99.90;;;;;;5072172;28;20300;-53
2022/09/30 05:03:34;;;;;;;16.87;15.37;;;9.40;99.90;;;;;;5065242;28;20267;-54
2022/09/30 05:06:03;;;;;;;16.43;14.93;;;9.30;99.90;;;;;;5071892;28;20225;-54
2022/09/30 05:08:32;;;;;;;18.30;16.40;;;9.30;99.90;;;;;;5069095;28;20220;-54
2022/09/30 05:11:04;;;;;;;17.27;15.47;;;9.40;99.90;;;;;;5078505;28;20230;-53
2022/09/30 05:13:34;;;;;;;19.40;17.53;;;9.40;99.90;;;;;;5068155;28;20688;-54
2022/09/30 05:16:03;;;;;;;18.13;16.43;;;9.30;99.90;;;;;;5072981;28;20232;-54
2022/09/30 05:18:32;;;;;;;17.83;16.07;;;9.30;99.90;;;;;;5072686;28;20231;-54
2022/09/30 05:21:02;;;;;;;17.00;15.30;;;9.40;99.90;;;;;;5072609;28;20670;-54
2022/09/30 05:23:31;;;;;;;17.10;15.50;;;9.30;99.90;;;;;;5065193;28;20221;-54
2022/09/30 05:26:00;;;;;;;18.50;16.33;;;9.30;99.90;;;;;;5072618;28;20217;-53
2022/09/30 05:28:31;;;;;;;16.60;15.10;;;9.40;99.90;;;;;;5061887;28;20228;-53
2022/09/30 05:31:04;;;;;;;17.23;15.53;;;9.30;99.90;;;;;;5071981;28;20239;-54
2022/09/30 05:33:33;;;;;;;17.57;15.83;;;9.30;99.90;;;;;;5066027;28;20741;-53
2022/09/30 05:36:03;;;;;;;17.73;15.93;;;9.30;99.90;;;;;;5071377;28;20231;-53
2022/09/30 05:38:31;;;;;;;17.57;15.90;;;9.30;99.90;;;;;;5072475;28;20234;-53
2022/09/30 05:41:05;;;;;;;17.20;15.40;;;9.30;99.90;;;;;;5072252;28;20276;-54
2022/09/30 05:43:35;;;;;;;16.40;14.90;;;9.30;99.90;;;;;;5062880;28;20240;-53
2022/09/30 05:46:03;;;;;;;17.13;15.43;;;9.30;99.90;;;;;;5073096;28;20618;-54
2022/09/30 05:48:31;;;;;;;18.33;16.63;;;9.40;99.90;;;;;;5071809;28;20223;-53
2022/09/30 05:51:00;;;;;;;17.40;15.77;;;9.30;99.90;;;;;;5072618;28;20227;-53
2022/09/30 05:53:30;;;;;;;17.93;16.23;;;9.40;99.90;;;;;;5067205;28;20223;-53
2022/09/30 05:55:59;;;;;;;17.03;15.43;;;9.40;99.90;;;;;;5072364;28;20238;-54
2022/09/30 05:58:27;;;;;;;16.17;14.67;;;9.50;99.90;;;;;;5071928;28;20230;-53
2022/09/30 06:00:56;;;;;;;16.97;15.33;;;9.50;99.90;;;;;;5071877;28;20231;-53
2022/09/30 06:03:32;;;;;;;18.40;16.57;;;9.60;99.90;;;;;;5066422;28;20238;-53
2022/09/30 06:06:00;;;;;;;16.43;14.93;;;9.60;99.90;;;;;;5072295;28;20224;-53
2022/09/30 06:08:29;;;;;;;17.07;15.47;;;9.60;99.90;;;;;;5072231;28;20239;-53
2022/09/30 06:10:58;;;;;;;17.50;15.70;;;9.70;99.90;;;;;;5077916;28;20740;-53
2022/09/30 06:13:26;;;;;;;17.67;15.87;;;9.70;99.90;;;;;;5064579;28;20585;-54
2022/09/30 06:16:01;;;;;;;18.13;16.43;;;9.70;99.90;;;;;;5072399;28;20227;-53
2022/09/30 06:18:30;;;;;;;15.97;14.50;;;9.70;99.90;;;;;;5071967;28;20224;-53
2022/09/30 06:20:59;;;;;;;17.20;15.53;;;9.80;99.90;;;;;;5071399;28;20591;-53
2022/09/30 06:23:28;;;;;;;16.37;14.87;;;9.80;99.90;;;;;;5065026;28;20241;-53
2022/09/30 06:25:56;;;;;;;16.50;14.87;;;9.80;99.90;;;;;;5070984;28;20224;-53
2022/09/30 06:28:26;;;;;;;16.90;15.30;;;9.90;99.90;;;;;;5071208;28;20231;-53
2022/09/30 06:30:54;;;;;;;16.33;14.73;;;10.00;99.90;;;;;;5067346;28;20641;-53
2022/09/30 06:33:24;;;;;;;16.93;15.37;;;10.10;99.90;;;;;;5061276;28;20238;-53
2022/09/30 06:35:52;;;;;;;17.23;15.50;;;10.10;99.90;;;;;;5068153;28;20329;-54
2022/09/30 06:38:21;;;;;;;17.10;15.60;;;10.20;99.90;;;;;;5069228;28;20584;-54
2022/09/30 06:40:50;;;;;;;16.60;14.90;;;10.30;99.90;;;;;;5070007;28;20230;-54
2022/09/30 06:43:19;;;;;;;16.70;15.30;;;10.30;99.90;;;;;;5066517;28;20224;-55
2022/09/30 06:45:50;;;;;;;16.43;14.93;;;10.20;99.90;;;;;;5069144;28;20220;-52
2022/09/30 06:48:19;;;;;;;17.33;15.73;;;10.30;99.90;;;;;;5070200;28;20224;-53
2022/09/30 06:51:04;;;;;;;17.37;15.77;;;10.30;99.90;;;;;;5069974;28;20643;-52
2022/09/30 06:53:34;;;;;;;18.00;16.10;;;10.50;99.90;;;;;;5066432;28;20224;-53
2022/09/30 06:56:02;;;;;;;17.73;16.03;;;10.60;99.90;;;;;;5069795;28;20683;-54
2022/09/30 06:58:30;;;;;;;16.37;14.87;;;10.80;99.90;;;;;;5074888;28;20218;-53
2022/09/30 07:01:00;;;;;;;16.20;14.70;;;10.90;99.90;;;;;;5074878;28;20633;-53
2022/09/30 07:03:31;;;;;;;17.23;15.63;;;11.00;99.90;;;;;;5074610;28;20220;-53
2022/09/30 07:06:00;;;;;;;15.17;13.80;;;11.20;99.90;;;;;;5074661;28;20223;-54
2022/09/30 07:08:31;;;;;;;16.20;14.67;;;11.30;99.90;;;;;;5075062;28;20714;-54
2022/09/30 07:11:00;;;;;;;16.00;14.43;;;11.50;99.90;;;;;;5080364;28;20281;-51
2022/09/30 07:13:28;;;;;;;15.73;14.33;;;11.50;99.90;;;;;;5067523;28;20232;-54
2022/09/30 07:15:56;;;;;;;16.23;14.07;;;11.60;99.90;;;;;;5075068;28;20257;-52
2022/09/30 07:18:27;;;;;;;15.43;13.83;;;11.70;99.90;;;;;;5074610;28;20255;-52
2022/09/30 07:20:56;;;;;;;13.47;12.20;;;11.80;99.90;;;;;;5074968;28;20235;-52
2022/09/30 07:23:25;;;;;;;14.07;12.77;;;12.00;99.90;;;;;;5071657;28;20227;-52
2022/09/30 07:25:59;;;;;;;13.23;12.13;;;12.20;99.90;;;;;;5074583;28;20249;-51
2022/09/30 07:28:30;;;;;;;13.63;12.43;;;12.30;99.90;;;;;;5074322;28;20222;-52
2022/09/30 07:31:02;;;;;;;13.53;12.23;;;12.40;99.90;;;;;;5074225;28;20233;-51
2022/09/30 07:33:51;;;;;;;13.07;11.77;;;12.60;99.90;;;;;;5077515;28;20578;-52
2022/09/30 07:36:25;;;;;;;12.23;11.13;;;12.70;99.90;;;;;;5074676;28;20255;-52
2022/09/30 07:39:02;;;;;;;11.77;10.67;;;12.80;99.90;;;;;;5074585;28;20234;-52
2022/09/30 07:41:31;;;;;;;12.10;10.90;;;12.90;99.90;;;;;;5069001;28;20232;-53
2022/09/30 07:43:59;;;;;;;11.70;10.60;;;13.00;99.90;;;;;;5074686;28;20234;-52
2022/09/30 07:46:30;;;;;;;10.70;9.80;;;13.10;99.90;;;;;;5073975;28;20292;-52
2022/09/30 07:49:02;;;;;;;11.37;10.23;;;13.10;99.90;;;;;;5074540;28;20230;-52
2022/09/30 07:51:33;;;;;;;10.70;9.70;;;13.20;99.90;;;;;;5074202;28;20218;-52
2022/09/30 07:54:04;;;;;;;11.17;10.27;;;13.30;99.90;;;;;;5073114;28;20271;-53
2022/09/30 07:56:37;;;;;;;10.53;9.63;;;13.50;99.90;;;;;;5072618;28;20605;-53
2022/09/30 07:59:26;;;;;;;11.33;10.23;;;13.50;99.90;;;;;;5074084;28;20598;-54
2022/09/30 08:01:54;;;;;;;10.23;9.33;;;13.70;99.90;;;;;;5070719;28;20363;-54
2022/09/30 08:04:24;;;;;;;9.73;8.83;;;13.90;99.90;;;;;;5071854;28;20284;-52
2022/09/30 08:06:56;;;;;;;10.00;8.10;;;14.10;99.90;;;;;;5066820;28;20723;-52
2022/09/30 08:09:27;;;;;;;9.03;8.23;;;14.30;99.90;;;;;;5067320;28;20221;-53
2022/09/30 08:11:58;;;;;;;9.50;8.50;;;14.40;99.90;;;;;;5066341;28;20283;-53
2022/09/30 08:14:27;;;;;;;8.83;8.00;;;14.40;99.90;;;;;;5066699;28;20245;-52
2022/09/30 08:16:57;;;;;;;8.67;7.80;;;14.60;99.90;;;;;;5067827;28;20234;-53
2022/09/30 08:19:26;;;;;;;8.33;7.53;;;14.80;99.90;;;;;;5067815;28;20224;-52
2022/09/30 08:21:55;;;;;;;8.60;7.73;;;15.00;99.90;;;;;;5066623;28;20238;-53
2022/09/30 08:24:24;;;;;;;8.23;7.47;;;15.20;99.90;;;;;;5065819;28;20235;-49
2022/09/30 08:26:52;;;;;;;7.70;7.00;;;15.20;99.90;;;;;;5068016;28;20796;-52
2022/09/30 08:29:22;;;;;;;7.90;7.10;;;15.40;99.90;;;;;;5068035;28;20221;-54
2022/09/30 08:32:10;;;;;;;7.27;6.60;;;15.40;99.90;;;;;;5064776;28;20227;-52
2022/09/30 08:34:38;;;;;;;9.73;7.00;;;15.60;99.90;;;;;;5067490;28;20238;-52
2022/09/30 08:37:08;;;;;;;8.13;7.43;;;15.80;99.90;;;;;;5067756;28;20594;-53
2022/09/30 08:39:37;;;;;;;7.93;7.20;;;15.90;99.90;;;;;;5067751;28;20322;-53
2022/09/30 08:42:30;;;;;;;6.93;6.23;;;16.10;99.90;;;;;;5065373;28;20245;-51
2022/09/30 08:45:26;;;;;;;6.93;6.33;;;16.30;99.90;;;;;;5067045;28;20238;-52
2022/09/30 08:48:02;;;;;;;7.33;6.43;;;16.40;99.90;;;;;;5067716;28;20610;-53
2022/09/30 08:50:36;;;;;;;7.00;6.40;;;16.30;99.90;;;;;;5066686;28;20219;-52
2022/09/30 08:53:09;;;;;;;6.50;6.00;;;16.50;99.90;;;;;;5063551;28;20662;-53
2022/09/30 08:55:41;;;;;;;8.40;6.63;;;16.80;99.90;;;;;;5065646;28;20249;-53
2022/09/30 08:58:20;;;;;;;7.00;6.10;;;16.80;99.90;;;;;;5066594;28;20239;-52
2022/09/30 09:00:52;;;;;;;5.90;5.30;;;16.90;99.90;;;;;;5066144;28;20313;-53
2022/09/30 09:03:26;;;;;;;5.73;5.17;;;17.00;99.90;;;;;;5065098;28;20220;-53
2022/09/30 09:06:03;;;;;;;7.50;5.43;;;17.10;99.90;;;;;;5066695;28;20280;-53
2022/09/30 09:08:47;;;;;;;5.70;5.20;;;17.40;99.90;;;;;;5067081;28;20247;-53
2022/09/30 09:11:27;;;;;;;5.70;5.20;;;17.70;99.90;;;;;;5067834;28;20234;-53
2022/09/30 09:14:01;;;;;;;6.67;4.80;;;17.80;99.90;;;;;;5063894;28;20702;-53
2022/09/30 09:16:36;;;;;;;5.93;4.90;;;17.90;99.90;;;;;;5067587;28;20319;-53
2022/09/30 09:19:10;;;;;;;5.40;4.90;;;18.00;99.90;;;;;;5066710;28;20231;-53
2022/09/30 09:21:50;;;;;;;4.80;4.40;;;18.10;99.90;;;;;;5066791;28;20280;-53
2022/09/30 09:24:21;;;;;;;5.03;4.30;;;18.10;99.90;;;;;;5065918;28;20228;-54
2022/09/30 09:26:51;;;;;;;4.80;4.30;;;18.00;99.90;;;;;;5066951;28;20674;-53
2022/09/30 09:29:32;;;;;;;4.27;3.87;;;18.30;99.90;;;;;;5066401;28;20223;-53
2022/09/30 09:32:02;;;;;;;4.00;3.57;;;18.40;99.90;;;;;;5066901;28;20227;-53
2022/09/30 09:34:31;;;;;;;3.70;3.30;;;18.40;99.90;;;;;;5071996;28;20227;-54
2022/09/30 09:37:17;;;;;;;4.80;3.10;;;18.30;99.90;;;;;;5072042;28;20231;-54
2022/09/30 09:40:03;;;;;;;3.90;2.70;;;18.50;99.90;;;;;;5072455;28;20235;-53
2022/09/30 09:42:46;;;;;;;2.83;2.37;;;18.30;99.90;;;;;;5071035;28;20223;-53
2022/09/30 09:45:23;;;;;;;3.47;2.63;;;18.50;99.90;;;;;;5071341;28;20226;-53
2022/09/30 09:47:56;;;;;;;2.80;2.40;;;18.60;99.90;;;;;;5064978;28;20289;-54
2022/09/30 09:50:33;;;;;;;2.87;2.40;;;18.70;99.90;;;;;;5072587;28;20231;-53
2022/09/30 09:53:15;;;;;;;2.93;1.93;;;18.80;99.90;;;;;;5071203;28;20227;-54
2022/09/30 09:55:44;;;;;;;3.57;1.90;;;18.80;99.90;;;;;;5071768;28;20220;-53
2022/09/30 09:58:15;;;;;;;2.30;2.10;;;19.10;99.90;;;;;;5072441;28;20708;-54
2022/09/30 10:03:38;;;;;;;2.37;2.00;;;19.50;99.90;;;;;;5059145;28;20223;-54
2022/09/30 10:06:08;;;;;;;2.57;1.80;;;19.70;99.90;;;;;;5072390;28;20762;-53
2022/09/30 10:08:38;;;;;;;2.53;1.60;;;19.80;99.90;;;;;;5076048;28;20228;-54
2022/09/30 10:11:17;;;;;;;2.33;1.60;;;19.70;99.90;;;;;;5070499;28;20280;-54
2022/09/30 10:13:46;;;;;;;4.10;1.70;;;19.80;99.90;;;;;;5072890;28;20237;-53
2022/09/30 10:16:28;;;;;;;2.17;1.53;;;19.70;99.90;;;;;;5076449;28;20232;-53
2022/09/30 10:18:58;;;;;;;2.80;1.50;;;19.80;99.90;;;;;;5075938;28;20252;-54
2022/09/30 10:21:28;;;;;;;3.23;1.70;;;20.00;99.90;;;;;;5075887;28;20692;-53
2022/09/30 10:23:58;;;;;;;1.63;1.20;;;20.00;99.90;;;;;;5072003;28;20261;-52
2022/09/30 10:26:28;;;;;;;1.63;1.20;;;20.00;99.90;;;;;;5074766;28;20220;-53
2022/09/30 10:28:58;;;;;;;2.63;1.30;;;20.10;99.90;;;;;;5075210;28;20221;-54
2022/09/30 10:31:29;;;;;;;3.37;1.70;;;20.20;99.90;;;;;;5075188;28;20240;-54
2022/09/30 10:34:03;;;;;;;1.63;1.50;;;20.20;99.90;;;;;;5080512;28;20243;-53
2022/09/30 10:36:33;;;;;;;1.73;1.60;;;19.90;99.90;;;;;;5075258;28;20283;-54
2022/09/30 10:39:05;;;;;;;2.13;1.40;;;20.00;99.90;;;;;;5074742;28;20306;-54
2022/09/30 10:41:36;;;;;;;2.17;1.47;;;20.10;99.90;;;;;;5074170;28;20727;-54
2022/09/30 10:44:06;;;;;;;2.00;1.73;;;20.20;99.90;;;;;;5068589;28;20707;-54
2022/09/30 10:46:38;;;;;;;2.73;1.50;;;20.10;99.90;;;;;;5074576;28;20236;-54
2022/09/30 10:49:20;;;;;;;2.40;1.70;;;20.10;99.90;;;;;;5075298;28;20255;-54
2022/09/30 10:51:48;;;;;;;2.10;1.60;;;20.00;99.90;;;;;;5062643;28;20225;-52
2022/09/30 10:54:58;;;;;;;2.00;1.80;;;20.10;99.90;;;;;;5066381;28;20237;-55
2022/09/30 10:57:28;;;;;;;2.43;1.63;;;20.20;99.90;;;;;;5032920;28;20612;-49
2022/09/30 11:00:00;;;;;;;3.00;2.13;;;20.40;99.90;;;;;;5069356;28;20245;-53
2022/09/30 11:02:34;;;;;;;2.47;1.87;;;20.30;99.90;;;;;;5066229;28;21190;-54
2022/09/30 11:05:12;;;;;;;2.43;1.97;;;20.30;99.90;;;;;;5069169;28;20232;-53
2022/09/30 11:07:46;;;;;;;2.53;1.90;;;20.40;99.90;;;;;;5068849;28;20232;-54
2022/09/30 11:10:32;;;;;;;1.90;1.70;;;20.40;99.90;;;;;;5069719;28;20232;-53
2022/09/30 11:13:10;;;;;;;4.57;2.17;;;20.60;99.90;;;;;;5066310;28;20732;-54
2022/09/30 11:15:48;;;;;;;2.23;1.90;;;20.60;99.90;;;;;;5069141;28;20226;-54
2022/09/30 11:18:23;;;;;;;1.80;1.60;;;20.60;99.90;;;;;;5068333;28;20238;-54
2022/09/30 11:20:58;;;;;;;2.07;1.87;;;20.60;99.90;;;;;;5067537;28;20218;-54
2022/09/30 11:23:32;;;;;;;2.57;1.70;;;20.60;99.90;;;;;;5065742;28;20218;-54
2022/09/30 11:26:08;;;;;;;3.20;1.67;;;20.90;99.90;;;;;;5068972;28;20241;-55
2022/09/30 11:29:02;;;;;;;2.50;1.90;;;21.10;99.90;;;;;;5068662;28;20240;-54
2022/09/30 11:31:34;;;;;;;2.30;1.73;;;21.10;99.90;;;;;;5063300;28;20227;-53
2022/09/30 11:34:21;;;;;;;4.20;1.80;;;20.80;99.90;;;;;;5066058;28;20238;-53
2022/09/30 11:36:59;;;;;;;2.13;1.60;;;20.80;99.90;;;;;;5068986;28;20344;-52
2022/09/30 11:40:00;;;;;;;2.00;1.80;;;20.70;99.90;;;;;;5068145;28;20245;-54
2022/09/30 11:42:34;;;;;;;2.00;1.80;;;20.30;99.90;;;;;;5060370;28;20235;-54
2022/09/30 11:45:12;;;;;;;2.13;1.40;;;20.00;99.90;;;;;;5068071;28;20230;-54
2022/09/30 11:47:53;;;;;;;2.40;1.53;;;19.80;99.90;;;;;;5068303;28;20715;-54
2022/09/30 11:50:42;;;;;;;2.63;1.63;;;19.70;99.90;;;;;;5066669;28;20246;-54
2022/09/30 11:53:21;;;;;;;2.13;1.90;;;19.70;99.90;;;;;;5065088;28;20241;-54
2022/09/30 11:56:16;;;;;;;3.53;1.97;;;19.60;99.90;;;;;;5067662;28;20229;-50
2022/09/30 11:58:50;;;;;;;2.67;2.43;;;19.60;99.90;;;;;;5068441;28;20235;-53
2022/09/30 12:01:25;;;;;;;2.50;2.30;;;19.40;99.90;;;;;;5067934;28;20224;-54
2022/09/30 12:04:04;;;;;;;2.67;2.47;;;19.20;99.90;;;;;;5066662;28;20236;-54
2022/09/30 12:06:36;;;;;;;2.50;2.07;;;19.00;99.90;;;;;;5067008;28;20223;-54
2022/09/30 12:09:14;;;;;;;3.20;2.20;;;19.10;99.90;;;;;;5067273;28;20227;-54
2022/09/30 12:11:49;;;;;;;3.23;1.80;;;18.90;99.90;;;;;;5067919;28;20250;-52
2022/09/30 12:14:22;;;;;;;2.10;1.80;;;18.70;99.90;;;;;;5067706;28;20636;-54
2022/09/30 12:16:51;;;;;;;2.40;2.20;;;18.60;99.90;;;;;;5067738;28;20681;-54
2022/09/30 12:19:25;;;;;;;3.37;2.20;;;18.60;99.90;;;;;;5068193;28;20220;-53
2022/09/30 12:21:57;;;;;;;3.33;2.57;;;18.60;99.90;;;;;;5067231;28;20608;-49
2022/09/30 12:24:31;;;;;;;4.33;3.27;;;18.60;99.90;;;;;;5067319;28;20236;-54
2022/09/30 12:27:00;;;;;;;3.57;2.83;;;18.50;99.90;;;;;;5068410;28;20224;-54
2022/09/30 12:32:48;;;;;;;5.37;4.50;;;18.50;99.90;;;;;;5062346;28;20232;-51
2022/09/30 12:35:37;;;;;;;5.70;5.20;;;18.40;99.90;;;;;;5067716;28;20224;-54
2022/09/30 12:38:20;;;;;;;5.77;4.53;;;18.10;99.90;;;;;;5068039;28;20566;-53
2022/09/30 12:41:02;;;;;;;4.30;3.90;;;18.10;99.90;;;;;;5068449;28;20215;-54
2022/09/30 12:43:56;;;;;;;5.27;3.57;;;18.20;99.90;;;;;;5064123;28;20236;-54
2022/09/30 12:46:41;;;;;;;4.40;3.77;;;18.10;99.90;;;;;;5066195;28;20249;-53
2022/09/30 12:49:16;;;;;;;4.00;3.70;;;18.10;99.90;;;;;;5066314;28;20242;-54
2022/09/30 12:51:48;;;;;;;4.97;4.03;;;17.90;99.90;;;;;;5065853;28;20231;-49
2022/09/30 12:54:20;;;;;;;4.40;3.93;;;17.80;99.90;;;;;;5066033;28;20227;-54
2022/09/30 12:56:58;;;;;;;3.93;3.63;;;17.70;99.90;;;;;;5066885;28;20564;-54
2022/09/30 12:59:29;;;;;;;3.90;3.57;;;17.60;99.90;;;;;;5066398;28;20230;-54
2022/09/30 13:01:58;;;;;;;4.20;3.80;;;17.70;99.90;;;;;;5064966;28;22042;-54
2022/09/30 13:04:33;;;;;;;4.83;4.00;;;17.70;99.90;;;;;;5064508;28;20219;-51
2022/09/30 13:07:13;;;;;;;5.77;3.90;;;17.70;99.90;;;;;;5067653;28;21446;-54
2022/09/30 13:10:17;;;;;;;5.53;4.10;;;17.70;99.90;;;;;;5066708;28;20215;-51
2022/09/30 13:12:51;;;;;;;5.40;3.70;;;17.40;99.90;;;;;;5064960;28;20307;-54
2022/09/30 13:15:40;;;;;;;3.90;3.60;;;17.50;99.90;;;;;;5067150;28;20261;-53
2022/09/30 13:18:45;;;;;;;4.63;4.23;;;17.50;99.90;;;;;;5066890;28;20232;-54
2022/09/30 13:21:21;;;;;;;4.47;3.97;;;17.50;99.90;;;;;;5066941;28;20319;-53
2022/09/30 13:23:50;;;;;;;4.60;4.20;;;17.40;99.90;;;;;;5062883;28;20228;-53